sensor_id;sensor_type;location;lat;lon;timestamp;P1;durP1;ratioP1;P2;durP2;ratioP2
56083;SDS011;41958;52.416;13.428;2022-07-01T00:01:19;15.70;;;12.30;;
56083;SDS011;41958;52.416;13.428;2022-07-01T00:03:44;13.93;;;12.30;;
56083;SDS011;41958;52.416;13.428;2022-07-01T00:06:14;14.93;;;12.52;;
56083;SDS011;41958;52.416;13.428;2022-07-01T00:08:39;14.77;;;11.95;;
56083;SDS011;41958;52.416;13.428;2022-07-01T00:11:04;14.60;;;12.02;;
56083;SDS011;41958;52.416;13.428;2022-07-01T00:13:30;15.25;;;12.38;;
56083;SDS011;41958;52.416;13.428;2022-07-01T00:15:55;15.85;;;13.40;;
56083;SDS011;41958;52.416;13.428;2022-07-01T00:18:20;17.48;;;13.65;;
56083;SDS011;41958;52.416;13.428;2022-07-01T00:20:47;14.90;;;13.20;;
56083;SDS011;41958;52.416;13.428;2022-07-01T00:23:12;16.40;;;13.85;;
56083;SDS011;41958;52.416;13.428;2022-07-01T00:25:38;17.65;;;14.25;;
56083;SDS011;41958;52.416;13.428;2022-07-01T00:28:04;15.82;;;13.75;;
56083;SDS011;41958;52.416;13.428;2022-07-01T00:30:29;16.60;;;13.98;;
56083;SDS011;41958;52.416;13.428;2022-07-01T00:32:55;16.55;;;14.23;;
56083;SDS011;41958;52.416;13.428;2022-07-01T00:35:20;18.05;;;14.77;;
56083;SDS011;41958;52.416;13.428;2022-07-01T00:37:45;18.13;;;15.20;;
56083;SDS011;41958;52.416;13.428;2022-07-01T00:40:11;17.75;;;13.90;;
56083;SDS011;41958;52.416;13.428;2022-07-01T00:42:40;20.65;;;15.07;;
56083;SDS011;41958;52.416;13.428;2022-07-01T00:45:07;19.95;;;14.77;;
56083;SDS011;41958;52.416;13.428;2022-07-01T00:47:34;18.52;;;14.82;;
56083;SDS011;41958;52.416;13.428;2022-07-01T00:50:00;19.13;;;14.95;;
56083;SDS011;41958;52.416;13.428;2022-07-01T00:52:26;18.00;;;14.63;;
56083;SDS011;41958;52.416;13.428;2022-07-01T00:54:51;20.55;;;15.40;;
56083;SDS011;41958;52.416;13.428;2022-07-01T00:57:20;18.48;;;15.23;;
56083;SDS011;41958;52.416;13.428;2022-07-01T00:59:45;19.45;;;14.75;;
56083;SDS011;41958;52.416;13.428;2022-07-01T01:02:11;18.30;;;15.32;;
56083;SDS011;41958;52.416;13.428;2022-07-01T01:04:36;19.27;;;15.43;;
56083;SDS011;41958;52.416;13.428;2022-07-01T01:07:02;19.23;;;15.70;;
56083;SDS011;41958;52.416;13.428;2022-07-01T01:09:28;18.17;;;15.13;;
56083;SDS011;41958;52.416;13.428;2022-07-01T01:11:55;17.92;;;14.80;;
56083;SDS011;41958;52.416;13.428;2022-07-01T01:14:20;21.10;;;15.32;;
56083;SDS011;41958;52.416;13.428;2022-07-01T01:16:46;20.17;;;15.77;;
56083;SDS011;41958;52.416;13.428;2022-07-01T01:19:12;19.63;;;16.27;;
56083;SDS011;41958;52.416;13.428;2022-07-01T01:21:37;20.83;;;16.20;;
56083;SDS011;41958;52.416;13.428;2022-07-01T01:24:02;21.42;;;15.75;;
56083;SDS011;41958;52.416;13.428;2022-07-01T01:26:28;20.65;;;16.58;;
56083;SDS011;41958;52.416;13.428;2022-07-01T01:28:54;21.77;;;16.30;;
56083;SDS011;41958;52.416;13.428;2022-07-01T01:31:27;19.58;;;16.50;;
56083;SDS011;41958;52.416;13.428;2022-07-01T01:33:54;21.45;;;16.40;;
56083;SDS011;41958;52.416;13.428;2022-07-01T01:36:19;18.55;;;15.43;;
56083;SDS011;41958;52.416;13.428;2022-07-01T01:38:44;20.05;;;15.95;;
56083;SDS011;41958;52.416;13.428;2022-07-01T01:41:10;20.63;;;17.50;;
56083;SDS011;41958;52.416;13.428;2022-07-01T01:43:35;22.15;;;17.17;;
56083;SDS011;41958;52.416;13.428;2022-07-01T01:46:01;23.38;;;17.10;;
56083;SDS011;41958;52.416;13.428;2022-07-01T01:48:28;21.00;;;17.33;;
56083;SDS011;41958;52.416;13.428;2022-07-01T01:50:54;22.73;;;17.42;;
56083;SDS011;41958;52.416;13.428;2022-07-01T01:53:19;21.67;;;17.80;;
56083;SDS011;41958;52.416;13.428;2022-07-01T01:55:45;22.50;;;16.65;;
56083;SDS011;41958;52.416;13.428;2022-07-01T01:58:10;24.30;;;17.73;;
56083;SDS011;41958;52.416;13.428;2022-07-01T02:00:35;23.80;;;18.60;;
56083;SDS011;41958;52.416;13.428;2022-07-01T02:03:00;23.30;;;18.33;;
56083;SDS011;41958;52.416;13.428;2022-07-01T02:05:26;25.83;;;18.10;;
56083;SDS011;41958;52.416;13.428;2022-07-01T02:07:51;22.70;;;18.23;;
56083;SDS011;41958;52.416;13.428;2022-07-01T02:10:16;21.45;;;17.98;;
56083;SDS011;41958;52.416;13.428;2022-07-01T02:12:41;24.05;;;18.52;;
56083;SDS011;41958;52.416;13.428;2022-07-01T02:15:07;24.23;;;19.05;;
56083;SDS011;41958;52.416;13.428;2022-07-01T02:17:33;22.42;;;18.67;;
56083;SDS011;41958;52.416;13.428;2022-07-01T02:19:58;24.45;;;18.35;;
56083;SDS011;41958;52.416;13.428;2022-07-01T02:22:23;25.67;;;18.92;;
56083;SDS011;41958;52.416;13.428;2022-07-01T02:24:49;24.63;;;18.67;;
56083;SDS011;41958;52.416;13.428;2022-07-01T02:27:14;26.23;;;18.60;;
56083;SDS011;41958;52.416;13.428;2022-07-01T02:29:39;25.73;;;19.05;;
56083;SDS011;41958;52.416;13.428;2022-07-01T02:32:06;25.88;;;19.15;;
56083;SDS011;41958;52.416;13.428;2022-07-01T02:34:32;24.88;;;19.60;;
56083;SDS011;41958;52.416;13.428;2022-07-01T02:36:57;26.60;;;20.83;;
56083;SDS011;41958;52.416;13.428;2022-07-01T02:39:22;24.85;;;19.85;;
56083;SDS011;41958;52.416;13.428;2022-07-01T02:41:48;25.08;;;19.27;;
56083;SDS011;41958;52.416;13.428;2022-07-01T02:44:34;25.95;;;19.20;;
56083;SDS011;41958;52.416;13.428;2022-07-01T02:46:59;24.67;;;19.20;;
56083;SDS011;41958;52.416;13.428;2022-07-01T02:49:24;28.80;;;20.55;;
56083;SDS011;41958;52.416;13.428;2022-07-01T02:51:50;26.38;;;19.35;;
56083;SDS011;41958;52.416;13.428;2022-07-01T02:54:15;29.00;;;19.73;;
56083;SDS011;41958;52.416;13.428;2022-07-01T02:56:41;28.35;;;21.02;;
56083;SDS011;41958;52.416;13.428;2022-07-01T02:59:06;24.55;;;19.40;;
56083;SDS011;41958;52.416;13.428;2022-07-01T03:01:32;26.50;;;20.20;;
56083;SDS011;41958;52.416;13.428;2022-07-01T03:03:57;31.83;;;22.30;;
56083;SDS011;41958;52.416;13.428;2022-07-01T03:06:22;29.35;;;22.02;;
56083;SDS011;41958;52.416;13.428;2022-07-01T03:08:47;26.42;;;19.38;;
56083;SDS011;41958;52.416;13.428;2022-07-01T03:11:13;27.48;;;21.40;;
56083;SDS011;41958;52.416;13.428;2022-07-01T03:13:38;27.83;;;20.55;;
56083;SDS011;41958;52.416;13.428;2022-07-01T03:16:04;27.02;;;20.50;;
56083;SDS011;41958;52.416;13.428;2022-07-01T03:18:29;29.67;;;21.77;;
56083;SDS011;41958;52.416;13.428;2022-07-01T03:20:54;25.40;;;19.58;;
56083;SDS011;41958;52.416;13.428;2022-07-01T03:23:19;26.88;;;21.10;;
56083;SDS011;41958;52.416;13.428;2022-07-01T03:25:44;27.05;;;19.60;;
56083;SDS011;41958;52.416;13.428;2022-07-01T03:28:10;28.52;;;21.55;;
56083;SDS011;41958;52.416;13.428;2022-07-01T03:30:35;27.63;;;20.33;;
56083;SDS011;41958;52.416;13.428;2022-07-01T03:33:00;29.55;;;22.42;;
56083;SDS011;41958;52.416;13.428;2022-07-01T03:35:25;26.02;;;20.42;;
56083;SDS011;41958;52.416;13.428;2022-07-01T03:38:10;31.20;;;21.65;;
56083;SDS011;41958;52.416;13.428;2022-07-01T03:40:36;28.95;;;21.20;;
56083;SDS011;41958;52.416;13.428;2022-07-01T03:43:01;30.98;;;21.98;;
56083;SDS011;41958;52.416;13.428;2022-07-01T03:45:27;27.90;;;21.80;;
56083;SDS011;41958;52.416;13.428;2022-07-01T03:47:52;28.80;;;22.20;;
56083;SDS011;41958;52.416;13.428;2022-07-01T03:50:18;29.55;;;22.33;;
56083;SDS011;41958;52.416;13.428;2022-07-01T03:52:46;27.80;;;20.90;;
56083;SDS011;41958;52.416;13.428;2022-07-01T03:55:11;29.58;;;22.25;;
56083;SDS011;41958;52.416;13.428;2022-07-01T03:57:37;29.40;;;22.17;;
56083;SDS011;41958;52.416;13.428;2022-07-01T04:00:03;31.33;;;21.95;;
56083;SDS011;41958;52.416;13.428;2022-07-01T04:02:30;31.83;;;21.05;;
56083;SDS011;41958;52.416;13.428;2022-07-01T04:04:55;30.35;;;22.10;;
56083;SDS011;41958;52.416;13.428;2022-07-01T04:07:21;29.23;;;22.42;;
56083;SDS011;41958;52.416;13.428;2022-07-01T04:09:46;29.45;;;22.38;;
56083;SDS011;41958;52.416;13.428;2022-07-01T04:12:12;28.95;;;21.77;;
56083;SDS011;41958;52.416;13.428;2022-07-01T04:14:38;30.10;;;22.40;;
56083;SDS011;41958;52.416;13.428;2022-07-01T04:17:03;30.27;;;22.05;;
56083;SDS011;41958;52.416;13.428;2022-07-01T04:19:28;30.00;;;22.45;;
56083;SDS011;41958;52.416;13.428;2022-07-01T04:21:54;28.65;;;21.55;;
56083;SDS011;41958;52.416;13.428;2022-07-01T04:24:37;30.15;;;21.65;;
56083;SDS011;41958;52.416;13.428;2022-07-01T04:27:03;30.63;;;22.13;;
56083;SDS011;41958;52.416;13.428;2022-07-01T04:29:28;28.38;;;21.10;;
56083;SDS011;41958;52.416;13.428;2022-07-01T04:31:57;29.55;;;21.88;;
56083;SDS011;41958;52.416;13.428;2022-07-01T04:34:23;24.95;;;19.85;;
56083;SDS011;41958;52.416;13.428;2022-07-01T04:36:49;28.75;;;21.45;;
56083;SDS011;41958;52.416;13.428;2022-07-01T04:39:14;28.88;;;20.80;;
56083;SDS011;41958;52.416;13.428;2022-07-01T04:41:39;34.75;;;21.60;;
56083;SDS011;41958;52.416;13.428;2022-07-01T04:44:23;29.48;;;22.70;;
56083;SDS011;41958;52.416;13.428;2022-07-01T04:46:49;27.88;;;21.70;;
56083;SDS011;41958;52.416;13.428;2022-07-01T04:49:14;28.38;;;20.23;;
56083;SDS011;41958;52.416;13.428;2022-07-01T04:51:39;34.50;;;21.45;;
56083;SDS011;41958;52.416;13.428;2022-07-01T04:54:05;27.38;;;20.77;;
56083;SDS011;41958;52.416;13.428;2022-07-01T04:56:31;31.90;;;21.75;;
56083;SDS011;41958;52.416;13.428;2022-07-01T04:58:57;28.48;;;21.15;;
56083;SDS011;41958;52.416;13.428;2022-07-01T05:01:23;27.67;;;20.65;;
56083;SDS011;41958;52.416;13.428;2022-07-01T05:03:48;30.50;;;22.60;;
56083;SDS011;41958;52.416;13.428;2022-07-01T05:06:14;25.10;;;20.60;;
56083;SDS011;41958;52.416;13.428;2022-07-01T05:08:39;29.20;;;21.25;;
56083;SDS011;41958;52.416;13.428;2022-07-01T05:11:04;28.33;;;19.95;;
56083;SDS011;41958;52.416;13.428;2022-07-01T05:13:30;31.65;;;19.90;;
56083;SDS011;41958;52.416;13.428;2022-07-01T05:15:55;26.05;;;19.13;;
56083;SDS011;41958;52.416;13.428;2022-07-01T05:18:20;27.50;;;19.63;;
56083;SDS011;41958;52.416;13.428;2022-07-01T05:21:04;27.25;;;19.20;;
56083;SDS011;41958;52.416;13.428;2022-07-01T05:23:48;24.17;;;19.08;;
56083;SDS011;41958;52.416;13.428;2022-07-01T05:26:13;26.15;;;18.70;;
56083;SDS011;41958;52.416;13.428;2022-07-01T05:28:42;25.30;;;18.65;;
56083;SDS011;41958;52.416;13.428;2022-07-01T05:31:11;24.55;;;18.13;;
56083;SDS011;41958;52.416;13.428;2022-07-01T05:33:36;22.55;;;18.33;;
56083;SDS011;41958;52.416;13.428;2022-07-01T05:36:01;22.98;;;17.38;;
56083;SDS011;41958;52.416;13.428;2022-07-01T05:38:27;19.23;;;16.67;;
56083;SDS011;41958;52.416;13.428;2022-07-01T05:40:52;22.45;;;17.60;;
56083;SDS011;41958;52.416;13.428;2022-07-01T05:43:18;21.98;;;17.30;;
56083;SDS011;41958;52.416;13.428;2022-07-01T05:45:44;21.15;;;17.85;;
56083;SDS011;41958;52.416;13.428;2022-07-01T05:48:09;22.00;;;17.38;;
56083;SDS011;41958;52.416;13.428;2022-07-01T05:50:34;22.52;;;17.58;;
56083;SDS011;41958;52.416;13.428;2022-07-01T05:53:00;21.45;;;16.83;;
56083;SDS011;41958;52.416;13.428;2022-07-01T05:55:25;19.25;;;15.85;;
56083;SDS011;41958;52.416;13.428;2022-07-01T05:57:53;21.33;;;17.25;;
56083;SDS011;41958;52.416;13.428;2022-07-01T06:00:18;20.63;;;16.63;;
56083;SDS011;41958;52.416;13.428;2022-07-01T06:02:44;22.08;;;17.92;;
56083;SDS011;41958;52.416;13.428;2022-07-01T06:05:09;19.77;;;17.35;;
56083;SDS011;41958;52.416;13.428;2022-07-01T06:07:34;24.35;;;16.92;;
56083;SDS011;41958;52.416;13.428;2022-07-01T06:10:00;23.35;;;17.48;;
56083;SDS011;41958;52.416;13.428;2022-07-01T06:12:25;22.83;;;18.17;;
56083;SDS011;41958;52.416;13.428;2022-07-01T06:14:50;25.88;;;18.70;;
56083;SDS011;41958;52.416;13.428;2022-07-01T06:17:16;21.75;;;18.13;;
56083;SDS011;41958;52.416;13.428;2022-07-01T06:19:42;22.60;;;18.13;;
56083;SDS011;41958;52.416;13.428;2022-07-01T06:22:07;22.50;;;18.50;;
56083;SDS011;41958;52.416;13.428;2022-07-01T06:24:33;21.65;;;18.58;;
56083;SDS011;41958;52.416;13.428;2022-07-01T06:26:58;21.00;;;18.42;;
56083;SDS011;41958;52.416;13.428;2022-07-01T06:29:24;22.73;;;18.38;;
56083;SDS011;41958;52.416;13.428;2022-07-01T06:31:52;19.90;;;17.60;;
56083;SDS011;41958;52.416;13.428;2022-07-01T06:34:20;22.67;;;18.35;;
56083;SDS011;41958;52.416;13.428;2022-07-01T06:36:54;27.15;;;19.02;;
56083;SDS011;41958;52.416;13.428;2022-07-01T06:39:20;27.15;;;19.27;;
56083;SDS011;41958;52.416;13.428;2022-07-01T06:41:46;24.60;;;19.90;;
56083;SDS011;41958;52.416;13.428;2022-07-01T06:44:11;23.05;;;19.50;;
56083;SDS011;41958;52.416;13.428;2022-07-01T06:46:36;25.83;;;19.40;;
56083;SDS011;41958;52.416;13.428;2022-07-01T06:49:01;24.20;;;19.05;;
56083;SDS011;41958;52.416;13.428;2022-07-01T06:51:27;22.85;;;18.52;;
56083;SDS011;41958;52.416;13.428;2022-07-01T06:53:52;22.80;;;17.67;;
56083;SDS011;41958;52.416;13.428;2022-07-01T06:56:18;22.30;;;18.20;;
56083;SDS011;41958;52.416;13.428;2022-07-01T06:58:43;20.65;;;17.48;;
56083;SDS011;41958;52.416;13.428;2022-07-01T07:01:09;21.23;;;17.40;;
56083;SDS011;41958;52.416;13.428;2022-07-01T07:03:35;24.42;;;18.83;;
56083;SDS011;41958;52.416;13.428;2022-07-01T07:06:01;22.52;;;17.55;;
56083;SDS011;41958;52.416;13.428;2022-07-01T07:08:28;22.35;;;16.75;;
56083;SDS011;41958;52.416;13.428;2022-07-01T07:10:54;21.60;;;17.63;;
56083;SDS011;41958;52.416;13.428;2022-07-01T07:13:20;20.95;;;16.73;;
56083;SDS011;41958;52.416;13.428;2022-07-01T07:15:45;18.55;;;16.00;;
56083;SDS011;41958;52.416;13.428;2022-07-01T07:18:11;21.38;;;16.63;;
56083;SDS011;41958;52.416;13.428;2022-07-01T07:20:36;19.02;;;15.52;;
56083;SDS011;41958;52.416;13.428;2022-07-01T07:23:01;21.15;;;16.20;;
56083;SDS011;41958;52.416;13.428;2022-07-01T07:25:27;21.73;;;16.40;;
56083;SDS011;41958;52.416;13.428;2022-07-01T07:27:52;18.52;;;15.95;;
56083;SDS011;41958;52.416;13.428;2022-07-01T07:30:18;20.33;;;15.45;;
56083;SDS011;41958;52.416;13.428;2022-07-01T07:32:44;17.48;;;15.45;;
56083;SDS011;41958;52.416;13.428;2022-07-01T07:35:09;19.83;;;16.73;;
56083;SDS011;41958;52.416;13.428;2022-07-01T07:37:35;19.83;;;16.30;;
56083;SDS011;41958;52.416;13.428;2022-07-01T07:40:01;17.83;;;15.23;;
56083;SDS011;41958;52.416;13.428;2022-07-01T07:42:28;19.60;;;15.38;;
56083;SDS011;41958;52.416;13.428;2022-07-01T07:44:54;17.50;;;14.73;;
56083;SDS011;41958;52.416;13.428;2022-07-01T07:47:19;13.97;;;12.57;;
56083;SDS011;41958;52.416;13.428;2022-07-01T07:49:44;13.88;;;12.48;;
56083;SDS011;41958;52.416;13.428;2022-07-01T07:52:10;16.17;;;13.38;;
56083;SDS011;41958;52.416;13.428;2022-07-01T07:54:35;15.52;;;13.38;;
56083;SDS011;41958;52.416;13.428;2022-07-01T07:57:00;15.50;;;12.57;;
56083;SDS011;41958;52.416;13.428;2022-07-01T07:59:25;13.95;;;12.18;;
56083;SDS011;41958;52.416;13.428;2022-07-01T08:01:51;11.93;;;10.80;;
56083;SDS011;41958;52.416;13.428;2022-07-01T08:04:17;10.27;;;9.18;;
56083;SDS011;41958;52.416;13.428;2022-07-01T08:06:42;10.43;;;9.33;;
56083;SDS011;41958;52.416;13.428;2022-07-01T08:09:07;9.80;;;8.47;;
56083;SDS011;41958;52.416;13.428;2022-07-01T08:11:33;10.68;;;8.65;;
56083;SDS011;41958;52.416;13.428;2022-07-01T08:13:58;10.90;;;9.25;;
56083;SDS011;41958;52.416;13.428;2022-07-01T08:16:24;9.95;;;8.73;;
56083;SDS011;41958;52.416;13.428;2022-07-01T08:18:49;9.15;;;8.25;;
56083;SDS011;41958;52.416;13.428;2022-07-01T08:21:14;10.53;;;8.20;;
56083;SDS011;41958;52.416;13.428;2022-07-01T08:23:40;10.82;;;7.68;;
56083;SDS011;41958;52.416;13.428;2022-07-01T08:26:05;10.93;;;8.20;;
56083;SDS011;41958;52.416;13.428;2022-07-01T08:28:30;8.18;;;7.25;;
56083;SDS011;41958;52.416;13.428;2022-07-01T08:30:56;9.63;;;8.10;;
56083;SDS011;41958;52.416;13.428;2022-07-01T08:33:21;8.97;;;8.17;;
56083;SDS011;41958;52.416;13.428;2022-07-01T08:35:46;9.47;;;8.57;;
56083;SDS011;41958;52.416;13.428;2022-07-01T08:38:11;8.80;;;7.90;;
56083;SDS011;41958;52.416;13.428;2022-07-01T08:40:37;9.98;;;8.98;;
56083;SDS011;41958;52.416;13.428;2022-07-01T08:43:04;11.23;;;9.30;;
56083;SDS011;41958;52.416;13.428;2022-07-01T08:45:31;11.60;;;10.23;;
56083;SDS011;41958;52.416;13.428;2022-07-01T08:48:01;12.90;;;9.32;;
56083;SDS011;41958;52.416;13.428;2022-07-01T08:50:28;12.00;;;9.90;;
56083;SDS011;41958;52.416;13.428;2022-07-01T08:52:59;11.50;;;10.40;;
56083;SDS011;41958;52.416;13.428;2022-07-01T08:55:24;11.35;;;9.82;;
56083;SDS011;41958;52.416;13.428;2022-07-01T08:57:50;11.27;;;10.18;;
56083;SDS011;41958;52.416;13.428;2022-07-01T09:00:16;11.32;;;10.20;;
56083;SDS011;41958;52.416;13.428;2022-07-01T09:05:24;11.32;;;9.95;;
56083;SDS011;41958;52.416;13.428;2022-07-01T09:07:57;13.18;;;10.50;;
56083;SDS011;41958;52.416;13.428;2022-07-01T09:10:23;10.75;;;9.65;;
56083;SDS011;41958;52.416;13.428;2022-07-01T09:12:49;10.80;;;9.80;;
56083;SDS011;41958;52.416;13.428;2022-07-01T09:15:28;10.15;;;9.10;;
56083;SDS011;41958;52.416;13.428;2022-07-01T09:17:55;10.48;;;8.20;;
56083;SDS011;41958;52.416;13.428;2022-07-01T09:20:28;8.27;;;6.97;;
56083;SDS011;41958;52.416;13.428;2022-07-01T09:22:59;8.23;;;5.90;;
56083;SDS011;41958;52.416;13.428;2022-07-01T09:25:35;6.38;;;3.50;;
56083;SDS011;41958;52.416;13.428;2022-07-01T09:28:12;4.32;;;2.85;;
56083;SDS011;41958;52.416;13.428;2022-07-01T09:30:43;4.80;;;2.72;;
56083;SDS011;41958;52.416;13.428;2022-07-01T09:33:11;6.40;;;2.20;;
56083;SDS011;41958;52.416;13.428;2022-07-01T09:35:38;3.75;;;2.38;;
56083;SDS011;41958;52.416;13.428;2022-07-01T09:38:05;5.05;;;2.15;;
56083;SDS011;41958;52.416;13.428;2022-07-01T09:45:54;3.65;;;1.80;;
56083;SDS011;41958;52.416;13.428;2022-07-01T09:48:21;3.10;;;1.70;;
56083;SDS011;41958;52.416;13.428;2022-07-01T09:50:48;1.30;;;1.20;;
56083;SDS011;41958;52.416;13.428;2022-07-01T09:53:13;2.08;;;1.33;;
56083;SDS011;41958;52.416;13.428;2022-07-01T09:55:39;2.55;;;1.40;;
56083;SDS011;41958;52.416;13.428;2022-07-01T09:58:05;1.98;;;1.20;;
56083;SDS011;41958;52.416;13.428;2022-07-01T10:00:31;1.30;;;1.20;;
56083;SDS011;41958;52.416;13.428;2022-07-01T10:02:57;1.05;;;0.95;;
56083;SDS011;41958;52.416;13.428;2022-07-01T10:05:25;1.05;;;0.98;;
56083;SDS011;41958;52.416;13.428;2022-07-01T10:07:52;1.35;;;1.25;;
56083;SDS011;41958;52.416;13.428;2022-07-01T10:10:34;1.08;;;1.08;;
56083;SDS011;41958;52.416;13.428;2022-07-01T10:13:15;1.30;;;1.20;;
56083;SDS011;41958;52.416;13.428;2022-07-01T10:15:41;2.03;;;1.48;;
56083;SDS011;41958;52.416;13.428;2022-07-01T10:18:18;3.10;;;1.38;;
56083;SDS011;41958;52.416;13.428;2022-07-01T10:20:46;1.55;;;1.33;;
56083;SDS011;41958;52.416;13.428;2022-07-01T10:23:13;1.55;;;1.45;;
56083;SDS011;41958;52.416;13.428;2022-07-01T10:28:11;1.67;;;1.40;;
56083;SDS011;41958;52.416;13.428;2022-07-01T10:30:53;1.40;;;1.30;;
56083;SDS011;41958;52.416;13.428;2022-07-01T10:34:07;1.50;;;1.40;;
56083;SDS011;41958;52.416;13.428;2022-07-01T10:41:25;1.33;;;1.23;;
56083;SDS011;41958;52.416;13.428;2022-07-01T10:43:53;2.65;;;1.17;;
56083;SDS011;41958;52.416;13.428;2022-07-01T10:49:13;0.80;;;0.80;;
56083;SDS011;41958;52.416;13.428;2022-07-01T10:51:56;0.68;;;0.68;;
56083;SDS011;41958;52.416;13.428;2022-07-01T10:59:45;0.63;;;0.30;;
56083;SDS011;41958;52.416;13.428;2022-07-01T11:02:20;0.30;;;0.30;;
56083;SDS011;41958;52.416;13.428;2022-07-01T11:04:47;0.93;;;0.30;;
56083;SDS011;41958;52.416;13.428;2022-07-01T11:07:13;1.30;;;0.30;;
56083;SDS011;41958;52.416;13.428;2022-07-01T11:09:38;0.57;;;0.30;;
56083;SDS011;41958;52.416;13.428;2022-07-01T11:12:05;0.63;;;0.20;;
56083;SDS011;41958;52.416;13.428;2022-07-01T11:14:37;0.50;;;0.30;;
56083;SDS011;41958;52.416;13.428;2022-07-01T11:17:05;1.30;;;0.30;;
56083;SDS011;41958;52.416;13.428;2022-07-01T11:19:30;0.50;;;0.30;;
56083;SDS011;41958;52.416;13.428;2022-07-01T11:21:55;0.40;;;0.40;;
56083;SDS011;41958;52.416;13.428;2022-07-01T11:24:21;2.45;;;0.50;;
56083;SDS011;41958;52.416;13.428;2022-07-01T11:26:47;4.03;;;0.52;;
56083;SDS011;41958;52.416;13.428;2022-07-01T11:29:14;0.50;;;0.50;;
56083;SDS011;41958;52.416;13.428;2022-07-01T11:31:40;0.70;;;0.50;;
56083;SDS011;41958;52.416;13.428;2022-07-01T11:34:06;2.80;;;0.50;;
56083;SDS011;41958;52.416;13.428;2022-07-01T11:36:32;0.60;;;0.50;;
56083;SDS011;41958;52.416;13.428;2022-07-01T11:39:20;0.50;;;0.50;;
56083;SDS011;41958;52.416;13.428;2022-07-01T11:41:51;1.48;;;0.50;;
56083;SDS011;41958;52.416;13.428;2022-07-01T11:44:28;0.90;;;0.60;;
56083;SDS011;41958;52.416;13.428;2022-07-01T11:46:54;0.60;;;0.60;;
56083;SDS011;41958;52.416;13.428;2022-07-01T11:49:19;0.65;;;0.60;;
56083;SDS011;41958;52.416;13.428;2022-07-01T11:51:53;1.30;;;1.00;;
56083;SDS011;41958;52.416;13.428;2022-07-01T11:54:23;1.48;;;0.90;;
56083;SDS011;41958;52.416;13.428;2022-07-01T11:56:48;1.73;;;1.30;;
56083;SDS011;41958;52.416;13.428;2022-07-01T11:59:14;1.35;;;1.25;;
56083;SDS011;41958;52.416;13.428;2022-07-01T12:01:39;4.22;;;2.08;;
56083;SDS011;41958;52.416;13.428;2022-07-01T12:04:06;2.05;;;1.50;;
56083;SDS011;41958;52.416;13.428;2022-07-01T12:06:32;1.90;;;1.80;;
56083;SDS011;41958;52.416;13.428;2022-07-01T12:08:58;2.05;;;1.95;;
56083;SDS011;41958;52.416;13.428;2022-07-01T12:11:25;2.50;;;2.30;;
56083;SDS011;41958;52.416;13.428;2022-07-01T12:13:52;2.40;;;2.20;;
56083;SDS011;41958;52.416;13.428;2022-07-01T12:16:18;3.15;;;2.60;;
56083;SDS011;41958;52.416;13.428;2022-07-01T12:18:53;2.53;;;2.33;;
56083;SDS011;41958;52.416;13.428;2022-07-01T12:21:23;5.05;;;2.80;;
56083;SDS011;41958;52.416;13.428;2022-07-01T12:24:09;2.70;;;2.50;;
56083;SDS011;41958;52.416;13.428;2022-07-01T12:29:27;3.83;;;2.70;;
56083;SDS011;41958;52.416;13.428;2022-07-01T12:31:58;3.33;;;3.03;;
56083;SDS011;41958;52.416;13.428;2022-07-01T12:34:38;3.10;;;2.80;;
56083;SDS011;41958;52.416;13.428;2022-07-01T12:37:25;3.35;;;3.05;;
56083;SDS011;41958;52.416;13.428;2022-07-01T12:39:59;3.03;;;2.83;;
56083;SDS011;41958;52.416;13.428;2022-07-01T12:44:58;3.50;;;3.20;;
56083;SDS011;41958;52.416;13.428;2022-07-01T12:47:29;3.20;;;3.00;;
56083;SDS011;41958;52.416;13.428;2022-07-01T12:50:07;3.45;;;3.15;;
56083;SDS011;41958;52.416;13.428;2022-07-01T12:52:33;3.90;;;3.50;;
56083;SDS011;41958;52.416;13.428;2022-07-01T12:54:59;4.88;;;3.95;;
56083;SDS011;41958;52.416;13.428;2022-07-01T12:57:28;3.97;;;3.67;;
56083;SDS011;41958;52.416;13.428;2022-07-01T12:59:54;5.93;;;3.80;;
56083;SDS011;41958;52.416;13.428;2022-07-01T13:02:19;4.45;;;3.10;;
56083;SDS011;41958;52.416;13.428;2022-07-01T13:04:45;4.72;;;3.35;;
56083;SDS011;41958;52.416;13.428;2022-07-01T13:07:10;4.25;;;3.65;;
56083;SDS011;41958;52.416;13.428;2022-07-01T13:09:35;4.40;;;4.00;;
56083;SDS011;41958;52.416;13.428;2022-07-01T13:12:00;4.53;;;4.10;;
56083;SDS011;41958;52.416;13.428;2022-07-01T13:14:25;5.85;;;4.97;;
56083;SDS011;41958;52.416;13.428;2022-07-01T13:16:51;6.07;;;4.70;;
56083;SDS011;41958;52.416;13.428;2022-07-01T13:19:16;4.30;;;3.65;;
56083;SDS011;41958;52.416;13.428;2022-07-01T13:21:41;4.07;;;3.55;;
56083;SDS011;41958;52.416;13.428;2022-07-01T13:24:06;4.03;;;3.65;;
56083;SDS011;41958;52.416;13.428;2022-07-01T13:26:32;5.25;;;4.45;;
56083;SDS011;41958;52.416;13.428;2022-07-01T13:28:57;4.40;;;3.95;;
56083;SDS011;41958;52.416;13.428;2022-07-01T13:31:22;3.67;;;3.38;;
56083;SDS011;41958;52.416;13.428;2022-07-01T13:33:48;3.97;;;3.65;;
56083;SDS011;41958;52.416;13.428;2022-07-01T13:36:13;5.60;;;3.88;;
56083;SDS011;41958;52.416;13.428;2022-07-01T13:38:40;5.57;;;4.03;;
56083;SDS011;41958;52.416;13.428;2022-07-01T13:41:05;5.35;;;3.70;;
56083;SDS011;41958;52.416;13.428;2022-07-01T13:43:30;5.82;;;4.05;;
56083;SDS011;41958;52.416;13.428;2022-07-01T13:45:56;6.05;;;4.35;;
56083;SDS011;41958;52.416;13.428;2022-07-01T13:48:21;4.65;;;4.20;;
56083;SDS011;41958;52.416;13.428;2022-07-01T13:50:46;4.03;;;3.55;;
56083;SDS011;41958;52.416;13.428;2022-07-01T13:53:11;5.95;;;4.70;;
56083;SDS011;41958;52.416;13.428;2022-07-01T13:55:37;4.68;;;3.97;;
56083;SDS011;41958;52.416;13.428;2022-07-01T13:58:02;4.65;;;4.00;;
56083;SDS011;41958;52.416;13.428;2022-07-01T14:00:27;4.28;;;3.88;;
56083;SDS011;41958;52.416;13.428;2022-07-01T14:02:52;5.03;;;4.03;;
56083;SDS011;41958;52.416;13.428;2022-07-01T14:05:18;5.47;;;4.85;;
56083;SDS011;41958;52.416;13.428;2022-07-01T14:07:43;4.97;;;4.47;;
56083;SDS011;41958;52.416;13.428;2022-07-01T14:10:08;5.30;;;4.10;;
56083;SDS011;41958;52.416;13.428;2022-07-01T14:12:33;4.35;;;3.83;;
56083;SDS011;41958;52.416;13.428;2022-07-01T14:14:59;5.22;;;4.30;;
56083;SDS011;41958;52.416;13.428;2022-07-01T14:17:25;5.15;;;4.13;;
56083;SDS011;41958;52.416;13.428;2022-07-01T14:19:51;4.78;;;4.38;;
56083;SDS011;41958;52.416;13.428;2022-07-01T14:22:16;6.80;;;4.70;;
56083;SDS011;41958;52.416;13.428;2022-07-01T14:24:41;7.50;;;4.30;;
56083;SDS011;41958;52.416;13.428;2022-07-01T14:27:06;5.00;;;4.55;;
56083;SDS011;41958;52.416;13.428;2022-07-01T14:29:32;7.78;;;4.70;;
56083;SDS011;41958;52.416;13.428;2022-07-01T14:31:57;5.28;;;4.38;;
56083;SDS011;41958;52.416;13.428;2022-07-01T14:34:24;5.97;;;4.85;;
56083;SDS011;41958;52.416;13.428;2022-07-01T14:36:50;5.20;;;4.68;;
56083;SDS011;41958;52.416;13.428;2022-07-01T14:39:15;5.28;;;4.43;;
56083;SDS011;41958;52.416;13.428;2022-07-01T14:41:40;9.07;;;5.53;;
56083;SDS011;41958;52.416;13.428;2022-07-01T14:44:05;5.20;;;4.70;;
56083;SDS011;41958;52.416;13.428;2022-07-01T14:46:31;6.30;;;4.47;;